createdAt,value
2019-03-19T00:00:00.363Z,101580.16
2019-03-19T00:02:29.947Z,101577.99
2019-03-19T00:04:58.753Z,101587.31
2019-03-19T00:07:27.717Z,101595.25
2019-03-19T00:09:56.630Z,101600.80
2019-03-19T00:12:25.513Z,101602.15
2019-03-19T00:14:54.152Z,101614.27
2019-03-19T00:17:22.796Z,101620.46
2019-03-19T00:19:51.405Z,101628.93
2019-03-19T00:22:20.650Z,101613.55
2019-03-19T00:24:49.649Z,101614.44
2019-03-19T00:27:18.949Z,101624.89
2019-03-19T00:29:47.840Z,101636.36
2019-03-19T00:32:17.040Z,101641.61
2019-03-19T00:34:46.339Z,101646.33
2019-03-19T00:37:15.638Z,101645.66
2019-03-19T00:39:44.635Z,101645.70
2019-03-19T00:42:13.259Z,101645.78
2019-03-19T00:44:44.471Z,101647.06
2019-03-19T00:47:13.091Z,101654.03
2019-03-19T00:49:41.733Z,101654.53
2019-03-19T00:52:10.367Z,101661.37
2019-03-19T00:54:39.128Z,101657.01
2019-03-19T00:57:08.105Z,101657.29
2019-03-19T00:59:37.330Z,101660.93
2019-03-19T01:02:06.398Z,101671.56
2019-03-19T01:04:35.023Z,101673.75
2019-03-19T01:07:03.989Z,101678.89
2019-03-19T01:09:33.013Z,101682.41
2019-03-19T01:12:01.842Z,101680.98
2019-03-19T01:14:30.746Z,101684.90
2019-03-19T01:16:59.757Z,101677.65
2019-03-19T01:19:28.736Z,101682.73
2019-03-19T01:21:58.155Z,101682.20
2019-03-19T01:24:26.807Z,101684.64
2019-03-19T01:26:55.728Z,101690.60
2019-03-19T01:29:24.620Z,101689.57
2019-03-19T01:31:53.499Z,101695.00
2019-03-19T01:34:22.798Z,101699.13
2019-03-19T01:36:51.696Z,101700.08
2019-03-19T01:39:20.889Z,101705.75
2019-03-19T01:41:49.531Z,101708.31
2019-03-19T01:44:18.773Z,101716.38
2019-03-19T01:46:47.773Z,101712.65
2019-03-19T01:49:17.380Z,101719.29
2019-03-19T01:51:45.996Z,101721.11
2019-03-19T01:54:14.962Z,101725.17
2019-03-19T01:56:43.864Z,101727.27
2019-03-19T01:59:12.737Z,101726.06
2019-03-19T02:01:41.755Z,101733.44
2019-03-19T02:04:10.399Z,101726.61
2019-03-19T02:06:39.315Z,101731.22
2019-03-19T02:09:09.578Z,101739.42
2019-03-19T02:11:38.505Z,101736.15
2019-03-19T02:14:07.236Z,101738.06
2019-03-19T02:16:36.511Z,101749.84
2019-03-19T02:19:05.245Z,101749.72
2019-03-19T02:21:34.190Z,101748.21
2019-03-19T02:24:03.088Z,101752.95
2019-03-19T02:26:31.975Z,101753.23
2019-03-19T02:29:00.969Z,101753.30
2019-03-19T02:31:29.613Z,101760.89
2019-03-19T02:33:58.557Z,101765.48
2019-03-19T02:36:27.173Z,101769.75
2019-03-19T02:38:56.161Z,101769.16
2019-03-19T02:41:25.446Z,101779.86
2019-03-19T02:43:54.417Z,101779.58
2019-03-19T02:46:23.334Z,101791.11
2019-03-19T02:48:52.335Z,101793.75
2019-03-19T02:51:21.307Z,101798.83
2019-03-19T02:53:50.511Z,101795.16
2019-03-19T02:56:31.972Z,101794.56
2019-03-19T02:58:49.531Z,101794.08
2019-03-19T03:01:18.502Z,101795.03
2019-03-19T03:03:47.220Z,101792.23
2019-03-19T03:06:16.496Z,101801.12
2019-03-19T03:08:45.123Z,101800.11
2019-03-19T03:11:13.771Z,101796.66
2019-03-19T03:13:42.768Z,101799.08
2019-03-19T03:16:11.682Z,101801.47
2019-03-19T03:18:40.651Z,101806.48
2019-03-19T03:21:09.312Z,101812.58
2019-03-19T03:23:37.965Z,101816.70
2019-03-19T03:26:07.211Z,101813.52
2019-03-19T03:28:35.855Z,101813.05
2019-03-19T03:31:04.467Z,101818.01
2019-03-19T03:33:33.132Z,101815.27
2019-03-19T03:36:02.077Z,101823.94
2019-03-19T03:38:30.722Z,101821.98
2019-03-19T03:40:59.378Z,101830.14
2019-03-19T03:43:28.434Z,101832.66
2019-03-19T03:45:57.608Z,101835.63
2019-03-19T03:48:26.285Z,101833.98
2019-03-19T03:50:55.194Z,101837.23
2019-03-19T03:53:24.114Z,101846.19
2019-03-19T03:55:53.194Z,101842.43
2019-03-19T03:58:21.839Z,101849.33
2019-03-19T04:00:50.602Z,101854.88
2019-03-19T04:03:19.210Z,101851.20
2019-03-19T04:05:48.274Z,101855.33
2019-03-19T04:08:16.927Z,101869.41
2019-03-19T04:10:45.552Z,101860.67
2019-03-19T04:13:14.821Z,101874.37
2019-03-19T04:15:43.458Z,101878.65
2019-03-19T04:18:12.401Z,101878.86
2019-03-19T04:20:41.291Z,101874.70
2019-03-19T04:23:09.931Z,101876.94
2019-03-19T04:25:39.276Z,101894.19
2019-03-19T04:28:07.903Z,101898.03
2019-03-19T04:30:37.270Z,101898.54
2019-03-19T04:33:06.002Z,101897.99
2019-03-19T04:35:34.638Z,101898.41
2019-03-19T04:38:03.631Z,101905.64
2019-03-19T04:40:32.513Z,101906.30
2019-03-19T04:43:01.193Z,101901.56
2019-03-19T04:45:30.502Z,101905.23
2019-03-19T04:47:59.415Z,101906.72
2019-03-19T04:50:28.297Z,101908.41
2019-03-19T04:52:56.943Z,101907.61
2019-03-19T04:55:25.587Z,101912.13
2019-03-19T04:57:54.251Z,101911.57
2019-03-19T05:00:22.917Z,101916.24
2019-03-19T05:02:51.560Z,101924.21
2019-03-19T05:05:20.514Z,101926.60
2019-03-19T05:07:49.499Z,101932.88
2019-03-19T05:10:18.918Z,101937.80
2019-03-19T05:12:47.642Z,101945.11
2019-03-19T05:15:16.620Z,101945.98
2019-03-19T05:17:45.611Z,101945.44
2019-03-19T05:20:14.671Z,101946.87
2019-03-19T05:22:43.562Z,101943.56
2019-03-19T05:25:12.483Z,101955.45
2019-03-19T05:27:41.762Z,101964.67
2019-03-19T05:30:11.059Z,101964.75
2019-03-19T05:32:40.039Z,101963.06
2019-03-19T05:35:09.456Z,101966.92
2019-03-19T05:37:38.161Z,101966.26
2019-03-19T05:40:07.446Z,101970.99
2019-03-19T05:42:36.119Z,101971.61
2019-03-19T05:45:05.521Z,101973.30
2019-03-19T05:47:38.186Z,101978.44
2019-03-19T05:50:05.267Z,101976.27
2019-03-19T05:52:34.340Z,101981.09
2019-03-19T05:55:02.975Z,101986.23
2019-03-19T05:57:31.941Z,101982.96
2019-03-19T06:00:00.569Z,101982.04
2019-03-19T06:02:29.518Z,101993.20
2019-03-19T06:04:58.708Z,101989.95
2019-03-19T06:07:27.607Z,102003.16
2019-03-19T06:09:56.589Z,102003.48
2019-03-19T06:12:25.486Z,102004.36
2019-03-19T06:14:54.789Z,102002.83
2019-03-19T06:17:24.196Z,102000.38
2019-03-19T06:19:53.084Z,102016.95
2019-03-19T06:22:21.711Z,102017.84
2019-03-19T06:24:50.972Z,102024.09
2019-03-19T06:27:19.606Z,102029.77
2019-03-19T06:29:48.217Z,102033.02
2019-03-19T06:32:17.130Z,102038.64
2019-03-19T06:34:45.742Z,102036.95
2019-03-19T06:37:14.366Z,102040.65
2019-03-19T06:39:43.006Z,102049.88
2019-03-19T06:42:11.732Z,102041.58
2019-03-19T06:44:40.974Z,102048.02
2019-03-19T06:47:09.964Z,102054.70
2019-03-19T06:49:38.969Z,102053.45
2019-03-19T06:52:07.619Z,102060.41
2019-03-19T06:54:36.324Z,102064.20
2019-03-19T06:57:05.464Z,102066.81
2019-03-19T06:59:34.436Z,102064.14
2019-03-19T07:02:03.429Z,102064.14
2019-03-19T07:04:32.412Z,102070.59
2019-03-19T07:07:01.038Z,102079.16
2019-03-19T07:09:29.700Z,102078.34
2019-03-19T07:12:01.443Z,102080.00
2019-03-19T07:14:29.370Z,102094.45
2019-03-19T07:16:58.660Z,102095.84
2019-03-19T07:19:27.603Z,102092.78
2019-03-19T07:21:56.600Z,102094.91
2019-03-19T07:24:25.794Z,102098.86
2019-03-19T07:26:54.507Z,102098.86
2019-03-19T07:29:23.475Z,102091.66
2019-03-19T07:31:52.476Z,102097.34
2019-03-19T07:34:21.117Z,102103.69
2019-03-19T07:36:50.352Z,102111.20
2019-03-19T07:39:19.285Z,102106.74
2019-03-19T07:41:48.234Z,102112.23
2019-03-19T07:44:16.914Z,102111.28
2019-03-19T07:46:46.231Z,102111.28
2019-03-19T07:49:15.526Z,102116.03
2019-03-19T07:51:44.201Z,102112.34
2019-03-19T07:54:12.850Z,102112.34
2019-03-19T07:56:42.102Z,102120.67
2019-03-19T07:59:10.730Z,102114.22
2019-03-19T08:01:39.677Z,102121.02
2019-03-19T08:04:08.315Z,102121.02
2019-03-19T08:06:37.280Z,102133.33
2019-03-19T08:09:07.658Z,102135.95
2019-03-19T08:11:36.886Z,102141.52
2019-03-19T08:14:05.630Z,102141.52
2019-03-19T08:16:34.374Z,102156.27
2019-03-19T08:19:03.281Z,102156.27
2019-03-19T08:21:32.011Z,102167.55
2019-03-19T08:24:01.026Z,102169.95
2019-03-19T08:26:29.670Z,102178.77
2019-03-19T08:28:58.711Z,102182.97
2019-03-19T08:31:27.605Z,102182.73
2019-03-19T08:33:56.353Z,102190.15
2019-03-19T08:36:25.587Z,102190.15
2019-03-19T08:38:54.248Z,102194.95
2019-03-19T08:41:23.577Z,102194.95
2019-03-19T08:43:52.724Z,102197.28
2019-03-19T08:46:22.380Z,102194.31
2019-03-19T08:48:51.683Z,102200.93
2019-03-19T08:51:20.342Z,102201.59
2019-03-19T08:53:49.257Z,102184.45
2019-03-19T08:56:18.255Z,102212.67
2019-03-19T08:58:46.903Z,102198.75
2019-03-19T09:01:16.139Z,102208.03
2019-03-19T09:03:45.135Z,102210.76
2019-03-19T09:06:14.452Z,102217.44
2019-03-19T09:08:43.732Z,102214.28
2019-03-19T09:11:12.349Z,102217.52
2019-03-19T09:13:41.353Z,102219.59
2019-03-19T09:16:10.305Z,102215.91
2019-03-19T09:18:39.401Z,102223.59
2019-03-19T09:21:08.037Z,102233.19
2019-03-19T09:23:37.285Z,102232.51
2019-03-19T09:26:06.311Z,102241.10
2019-03-19T09:28:35.275Z,102252.16
2019-03-19T09:31:04.266Z,102247.77
2019-03-19T09:33:33.261Z,102258.44
2019-03-19T09:36:01.915Z,102250.99
2019-03-19T09:38:30.566Z,102262.84
2019-03-19T09:41:00.140Z,102262.84
2019-03-19T09:43:29.704Z,102264.05
2019-03-19T09:45:58.640Z,102264.08
2019-03-19T09:48:28.365Z,102264.08
2019-03-19T09:50:57.555Z,102273.42
2019-03-19T09:53:26.555Z,102274.31
2019-03-19T09:55:55.577Z,102281.43
2019-03-19T09:58:24.223Z,102290.95
2019-03-19T10:00:52.874Z,102289.91
2019-03-19T10:03:22.218Z,102293.66
2019-03-19T10:05:51.202Z,102291.48
2019-03-19T10:08:20.401Z,102304.24
2019-03-19T10:10:49.120Z,102304.24
2019-03-19T10:13:17.750Z,102301.78
2019-03-19T10:15:46.669Z,102300.42
2019-03-19T10:18:15.598Z,102309.41
2019-03-19T10:20:44.218Z,102309.41
2019-03-19T10:23:13.749Z,102315.88
2019-03-19T10:25:43.057Z,102313.66
2019-03-19T10:28:11.685Z,102309.28
2019-03-19T10:30:40.396Z,102309.62
2019-03-19T10:33:09.727Z,102309.62
2019-03-19T10:35:38.721Z,102302.27
2019-03-19T10:38:07.811Z,102306.70
2019-03-19T10:40:36.582Z,102317.61
2019-03-19T10:43:05.710Z,102317.61
2019-03-19T10:45:34.366Z,102315.58
2019-03-19T10:48:03.029Z,102320.02
2019-03-19T10:50:31.659Z,102320.02
2019-03-19T10:53:00.309Z,102325.76
2019-03-19T10:55:29.236Z,102325.76
2019-03-19T10:57:57.921Z,102339.58
2019-03-19T11:00:26.727Z,102340.77
2019-03-19T11:02:55.518Z,102350.68
2019-03-19T11:05:24.506Z,102346.84
2019-03-19T11:07:53.589Z,102346.31
2019-03-19T11:10:22.291Z,102353.24
2019-03-19T11:12:51.274Z,102349.39
2019-03-19T11:15:19.991Z,102352.86
2019-03-19T11:17:49.356Z,102347.33
2019-03-19T11:20:18.664Z,102358.55
2019-03-19T11:22:47.550Z,102366.11
2019-03-19T11:25:16.488Z,102370.21
2019-03-19T11:27:45.538Z,102377.25
2019-03-19T11:30:19.555Z,102375.14
2019-03-19T11:32:48.202Z,102366.41
2019-03-19T11:35:17.430Z,102377.66
2019-03-19T11:37:46.105Z,102377.66
2019-03-19T11:40:15.224Z,102378.87
2019-03-19T11:42:43.920Z,102378.87
2019-03-19T11:45:13.855Z,102378.08
2019-03-19T11:47:43.131Z,102379.30
2019-03-19T11:50:14.612Z,102379.30
2019-03-19T11:52:43.562Z,102373.45
2019-03-19T11:55:12.866Z,102377.89
2019-03-19T11:57:41.862Z,102388.70
2019-03-19T12:00:33.860Z,102391.65
2019-03-19T12:03:12.275Z,102396.48
2019-03-19T12:05:33.034Z,102391.55
2019-03-19T12:08:02.315Z,102393.77
2019-03-19T12:10:31.504Z,102394.26
2019-03-19T12:13:00.126Z,102396.73
2019-03-19T12:15:29.186Z,102405.46
2019-03-19T12:17:58.394Z,102402.55
2019-03-19T12:20:27.014Z,102405.56
2019-03-19T12:22:55.643Z,102406.56
2019-03-19T12:25:24.549Z,102410.44
2019-03-19T12:27:53.444Z,102413.19
2019-03-19T12:30:25.995Z,102412.98
2019-03-19T12:32:52.794Z,102415.29
2019-03-19T12:35:22.159Z,102414.02
2019-03-19T12:37:51.375Z,102413.66
2019-03-19T12:40:20.076Z,102418.34
2019-03-19T12:42:48.764Z,102427.22
2019-03-19T12:45:17.798Z,102432.70
2019-03-19T12:47:46.713Z,102415.84
2019-03-19T12:50:16.640Z,102424.77
2019-03-19T12:52:45.657Z,102417.42
2019-03-19T12:55:14.733Z,102419.66
2019-03-19T12:57:43.404Z,102419.22
2019-03-19T13:00:17.228Z,102417.36
2019-03-19T13:02:45.903Z,102414.27
2019-03-19T13:05:14.898Z,102414.17
2019-03-19T13:07:43.609Z,102424.27
2019-03-19T13:10:14.524Z,102423.27
2019-03-19T13:12:43.414Z,102421.23
2019-03-19T13:15:12.538Z,102427.62
2019-03-19T13:17:41.510Z,102426.75
2019-03-19T13:20:11.314Z,102427.89
2019-03-19T13:22:40.728Z,102431.27
2019-03-19T13:25:11.865Z,102434.06
2019-03-19T13:27:43.417Z,102432.89
2019-03-19T13:30:13.699Z,102433.55
2019-03-19T13:32:42.344Z,102437.48
2019-03-19T13:35:11.321Z,102431.62
2019-03-19T13:37:40.216Z,102438.20
2019-03-19T13:40:09.486Z,102437.63
2019-03-19T13:42:38.213Z,102444.05
2019-03-19T13:45:08.162Z,102436.48
2019-03-19T13:47:36.881Z,102439.50
2019-03-19T13:50:06.471Z,102446.74
2019-03-19T13:52:35.426Z,102448.08
2019-03-19T13:55:04.942Z,102452.45
2019-03-19T13:57:33.667Z,102458.22
2019-03-19T14:00:02.699Z,102465.38
2019-03-19T14:02:31.676Z,102462.91
2019-03-19T14:05:00.578Z,102465.67
2019-03-19T14:07:29.569Z,102459.36
2019-03-19T14:09:58.575Z,102473.49
2019-03-19T14:12:27.215Z,102475.30
2019-03-19T14:14:56.197Z,102473.67
2019-03-19T14:17:24.851Z,102477.75
2019-03-19T14:19:53.535Z,102479.30
2019-03-19T14:22:22.509Z,102480.16
2019-03-19T14:24:51.513Z,102489.30
2019-03-19T14:27:20.599Z,102490.05
2019-03-19T14:29:51.535Z,102481.96
2019-03-19T14:32:19.652Z,102484.77
2019-03-19T14:34:48.302Z,102491.69
2019-03-19T14:37:17.301Z,102501.03
2019-03-19T14:39:46.295Z,102493.79
2019-03-19T14:42:15.482Z,102502.23
2019-03-19T14:44:44.914Z,102506.23
2019-03-19T14:47:13.573Z,102500.45
2019-03-19T14:49:47.017Z,102502.88
2019-03-19T14:52:13.196Z,102503.48
2019-03-19T14:54:42.883Z,102506.33
2019-03-19T14:57:11.803Z,102499.08
2019-03-19T14:59:40.803Z,102505.13
2019-03-19T15:02:09.894Z,102513.16
2019-03-19T15:04:38.788Z,102517.15
2019-03-19T15:07:07.774Z,102516.03
2019-03-19T15:09:36.772Z,102504.98
2019-03-19T15:12:05.483Z,102511.03
2019-03-19T15:14:34.167Z,102509.89
2019-03-19T15:17:05.229Z,102502.64
2019-03-19T15:19:33.573Z,102517.87
2019-03-19T15:22:02.618Z,102518.44
2019-03-19T15:24:31.245Z,102515.94
2019-03-19T15:27:00.446Z,102514.84
2019-03-19T15:29:29.079Z,102511.15
2019-03-19T15:31:58.049Z,102515.70
2019-03-19T15:34:27.045Z,102517.03
2019-03-19T15:36:55.684Z,102524.39
2019-03-19T15:39:24.335Z,102519.94
2019-03-19T15:41:53.281Z,102520.74
2019-03-19T15:44:22.275Z,102512.97
2019-03-19T15:46:51.286Z,102518.83
2019-03-19T15:49:20.482Z,102517.03
2019-03-19T15:51:49.770Z,102522.14
2019-03-19T15:54:18.784Z,102533.31
2019-03-19T15:56:47.862Z,102532.20
2019-03-19T15:59:16.851Z,102537.72
2019-03-19T16:01:45.501Z,102540.48
2019-03-19T16:04:14.429Z,102534.11
2019-03-19T16:06:43.726Z,102548.30
2019-03-19T16:09:12.367Z,102549.85
2019-03-19T16:11:41.456Z,102552.47
2019-03-19T16:14:10.068Z,102553.21
2019-03-19T16:16:39.296Z,102553.27
2019-03-19T16:19:08.256Z,102553.44
2019-03-19T16:21:37.492Z,102556.31
2019-03-19T16:24:06.227Z,102561.61
2019-03-19T16:26:35.499Z,102564.63
2019-03-19T16:29:04.098Z,102573.27
2019-03-19T16:31:32.733Z,102568.16
2019-03-19T16:34:01.950Z,102576.17
2019-03-19T16:36:30.834Z,102575.81
2019-03-19T16:38:59.467Z,102573.67
2019-03-19T16:41:28.113Z,102578.83
2019-03-19T16:43:56.791Z,102579.48
2019-03-19T16:46:25.785Z,102577.77
2019-03-19T16:48:54.538Z,102583.73
2019-03-19T16:51:23.178Z,102587.84
2019-03-19T16:53:51.815Z,102591.80
2019-03-19T16:56:20.586Z,102593.30
2019-03-19T16:58:49.538Z,102594.34
2019-03-19T17:01:18.291Z,102590.98
2019-03-19T17:03:47.210Z,102587.77
2019-03-19T17:06:15.957Z,102594.41
2019-03-19T17:08:45.194Z,102599.27
2019-03-19T17:11:13.850Z,102601.54
2019-03-19T17:13:42.490Z,102600.67
2019-03-19T17:16:11.461Z,102608.34
2019-03-19T17:18:40.450Z,102614.80
2019-03-19T17:21:09.125Z,102610.34
2019-03-19T17:23:38.049Z,102610.34
2019-03-19T17:26:06.783Z,102619.45
2019-03-19T17:28:35.443Z,102624.90
2019-03-19T17:31:04.176Z,102627.78
2019-03-19T17:33:32.886Z,102620.67
2019-03-19T17:36:02.184Z,102629.59
2019-03-19T17:38:30.855Z,102633.40
2019-03-19T17:40:59.534Z,102637.63
2019-03-19T17:43:28.480Z,102639.99
2019-03-19T17:45:57.252Z,102639.99
2019-03-19T17:48:26.707Z,102651.77
2019-03-19T17:50:56.653Z,102651.77
2019-03-19T17:53:25.337Z,102640.34
2019-03-19T17:55:54.338Z,102640.34
2019-03-19T17:58:22.985Z,102653.25
2019-03-19T18:00:51.933Z,102653.25
2019-03-19T18:03:21.091Z,102646.14
2019-03-19T18:05:50.022Z,102646.14
2019-03-19T18:08:18.765Z,102646.37
2019-03-19T18:10:47.448Z,102645.56
2019-03-19T18:13:16.097Z,102652.22
2019-03-19T18:15:45.255Z,102652.95
2019-03-19T18:18:14.260Z,102664.66
2019-03-19T18:20:43.257Z,102669.90
2019-03-19T18:23:11.906Z,102674.92
2019-03-19T18:25:40.830Z,102674.92
2019-03-19T18:28:10.408Z,102674.27
2019-03-19T18:30:39.321Z,102673.77
2019-03-19T18:33:08.010Z,102676.22
2019-03-19T18:35:36.669Z,102683.15
2019-03-19T18:38:05.698Z,102682.06
2019-03-19T18:40:34.691Z,102683.15
2019-03-19T18:43:03.362Z,102696.26
2019-03-19T18:45:32.074Z,102697.95
2019-03-19T18:48:01.007Z,102697.95
2019-03-19T18:50:29.669Z,102701.44
2019-03-19T18:52:58.628Z,102706.59
2019-03-19T18:55:27.302Z,102713.31
2019-03-19T18:57:55.965Z,102715.76
2019-03-19T19:00:24.676Z,102715.19
2019-03-19T19:02:53.451Z,102715.19
2019-03-19T19:05:22.477Z,102731.33
2019-03-19T19:07:51.221Z,102731.33
2019-03-19T19:10:21.335Z,102735.58
2019-03-19T19:12:50.404Z,102735.58
2019-03-19T19:15:19.128Z,102744.11
2019-03-19T19:17:48.157Z,102744.94
2019-03-19T19:20:17.160Z,102755.28
2019-03-19T19:22:45.840Z,102755.28
2019-03-19T19:25:14.784Z,102761.42
2019-03-19T19:27:43.720Z,102765.16
2019-03-19T19:30:15.076Z,102762.30
2019-03-19T19:32:43.989Z,102766.93
2019-03-19T19:35:13.055Z,102768.09
2019-03-19T19:37:42.076Z,102774.77
2019-03-19T19:40:12.902Z,102772.52
2019-03-19T19:42:41.987Z,102782.32
2019-03-19T19:45:10.925Z,102779.21
2019-03-19T19:47:39.952Z,102788.94
2019-03-19T19:50:10.586Z,102785.01
2019-03-19T19:52:39.912Z,102789.63
2019-03-19T19:55:09.105Z,102796.11
2019-03-19T19:57:37.807Z,102794.44
2019-03-19T20:00:08.457Z,102790.78
2019-03-19T20:02:37.105Z,102791.59
2019-03-19T20:05:06.031Z,102801.10
2019-03-19T20:07:34.686Z,102801.50
2019-03-19T20:10:03.382Z,102799.86
2019-03-19T20:12:32.369Z,102810.26
2019-03-19T20:15:01.042Z,102809.36
2019-03-19T20:17:29.709Z,102805.36
2019-03-19T20:19:58.390Z,102813.00
2019-03-19T20:22:27.316Z,102806.97
2019-03-19T20:24:55.965Z,102807.36
2019-03-19T20:27:24.927Z,102806.78
2019-03-19T20:29:53.606Z,102818.47
2019-03-19T20:32:22.257Z,102816.91
2019-03-19T20:34:51.675Z,102811.59
2019-03-19T20:37:20.769Z,102815.36
2019-03-19T20:39:49.682Z,102814.47
2019-03-19T20:42:18.659Z,102823.39
2019-03-19T20:44:47.954Z,102819.08
2019-03-19T20:47:16.625Z,102814.14
2019-03-19T20:49:47.874Z,102823.84
2019-03-19T20:52:16.269Z,102828.02
2019-03-19T20:54:44.899Z,102826.91
2019-03-19T20:57:13.847Z,102826.53
2019-03-19T20:59:42.837Z,102833.95
2019-03-19T21:02:11.556Z,102839.50
2019-03-19T21:04:40.223Z,102836.72
2019-03-19T21:07:09.100Z,102838.50
2019-03-19T21:09:37.787Z,102839.80
2019-03-19T21:12:06.611Z,102840.88
2019-03-19T21:14:35.909Z,102840.78
2019-03-19T21:17:04.655Z,102851.87
2019-03-19T21:19:33.390Z,102854.63
2019-03-19T21:22:02.350Z,102843.03
2019-03-19T21:24:31.024Z,102849.45
2019-03-19T21:26:59.660Z,102848.70
2019-03-19T21:29:28.312Z,102840.36
2019-03-19T21:31:57.299Z,102849.59
2019-03-19T21:34:26.623Z,102847.49
2019-03-19T21:36:55.261Z,102855.67
2019-03-19T21:39:24.201Z,102858.08
2019-03-19T21:41:53.153Z,102854.75
2019-03-19T21:44:21.777Z,102853.44
2019-03-19T21:46:50.499Z,102857.42
2019-03-19T21:49:19.134Z,102856.80
2019-03-19T21:51:48.432Z,102859.89
2019-03-19T21:54:17.341Z,102865.53
2019-03-19T21:56:45.969Z,102865.13
2019-03-19T21:59:15.101Z,102862.39
2019-03-19T22:01:44.204Z,102868.23
2019-03-19T22:04:13.183Z,102860.71
2019-03-19T22:06:42.087Z,102863.38
2019-03-19T22:09:11.083Z,102864.14
2019-03-19T22:11:40.077Z,102860.69
2019-03-19T22:14:09.070Z,102860.55
2019-03-19T22:16:37.729Z,102856.30
2019-03-19T22:19:06.744Z,102857.19
2019-03-19T22:21:35.419Z,102857.72
2019-03-19T22:24:04.181Z,102862.03
2019-03-19T22:26:32.847Z,102858.94
2019-03-19T22:29:02.109Z,102856.14
2019-03-19T22:31:30.773Z,102861.47
2019-03-19T22:33:59.707Z,102862.82
2019-03-19T22:36:28.382Z,102868.22
2019-03-19T22:38:57.034Z,102864.20
2019-03-19T22:41:25.658Z,102868.09
2019-03-19T22:43:54.317Z,102858.77
2019-03-19T22:46:22.935Z,102860.89
2019-03-19T22:48:51.903Z,102856.00
2019-03-19T22:51:20.579Z,102854.44
2019-03-19T22:53:49.485Z,102857.89
2019-03-19T22:56:18.157Z,102862.04
2019-03-19T22:58:47.163Z,102864.36
2019-03-19T23:01:16.064Z,102859.16
2019-03-19T23:03:44.850Z,102852.25
2019-03-19T23:06:13.487Z,102860.46
2019-03-19T23:08:42.206Z,102864.02
2019-03-19T23:11:10.942Z,102863.66
2019-03-19T23:13:39.682Z,102861.64
2019-03-19T23:16:09.000Z,102859.56
2019-03-19T23:18:37.702Z,102865.53
2019-03-19T23:21:06.670Z,102863.52
2019-03-19T23:23:35.587Z,102858.53
2019-03-19T23:26:04.658Z,102861.59
2019-03-19T23:28:33.655Z,102867.33
2019-03-19T23:31:02.646Z,102874.53
2019-03-19T23:33:32.050Z,102866.83
2019-03-19T23:36:00.702Z,102869.39
2019-03-19T23:38:29.740Z,102871.81
2019-03-19T23:40:58.707Z,102882.88
2019-03-19T23:43:27.346Z,102873.83
2019-03-19T23:45:56.608Z,102876.36
2019-03-19T23:48:25.805Z,102876.55
2019-03-19T23:50:55.105Z,102880.41
2019-03-19T23:53:23.742Z,102882.44
2019-03-19T23:55:52.688Z,102890.83
2019-03-19T23:58:21.679Z,102891.92
